Time;durP1;ratioP1;P1;durP2;ratioP2;P2;SDS_P1;SDS_P2;PMS_P1;PMS_P2;Temp;Humidity;BMP_temperature;BMP_pressure;BME280_temperature;BME280_humidity;BME280_pressure;Samples;Min_cycle;Max_cycle;Signal;HPM_P1;HPM_P2
2021/06/14 00:00:31;;;;;;;4.90;3.42;;;10.80;99.90;;;;;;5030553;28;20053;-76
2021/06/14 00:02:59;;;;;;;2.50;2.30;;;10.80;99.90;;;;;;5032037;28;20049;-77
2021/06/14 00:05:38;;;;;;;4.90;3.13;;;10.70;99.90;;;;;;5029707;28;20045;-77
2021/06/14 00:08:13;;;;;;;3.08;2.72;;;10.60;99.90;;;;;;5031982;28;20053;-77
2021/06/14 00:10:42;;;;;;;4.68;2.00;;;10.50;99.90;;;;;;5030838;28;20300;-76
2021/06/14 00:13:11;;;;;;;5.18;2.90;;;10.50;99.90;;;;;;5013182;28;20049;-76
2021/06/14 00:15:40;;;;;;;3.65;3.33;;;10.60;99.90;;;;;;5013732;28;20054;-76
2021/06/14 00:18:09;;;;;;;3.83;2.40;;;10.60;99.90;;;;;;5030373;28;20069;-76
2021/06/14 00:20:39;;;;;;;6.43;2.72;;;10.50;99.90;;;;;;4991176;28;20388;-76
2021/06/14 00:23:09;;;;;;;4.00;2.60;;;10.50;99.90;;;;;;5012480;28;20475;-77
2021/06/14 00:25:39;;;;;;;4.97;2.45;;;10.50;99.90;;;;;;5011303;28;20041;-77
2021/06/14 00:28:07;;;;;;;4.20;2.45;;;10.50;99.90;;;;;;5012259;28;20056;-77
2021/06/14 00:30:38;;;;;;;2.90;2.67;;;10.40;99.90;;;;;;5010096;28;20054;-76
2021/06/14 00:33:08;;;;;;;3.28;2.70;;;10.30;99.90;;;;;;5010214;28;20045;-76
2021/06/14 00:35:36;;;;;;;3.13;2.30;;;10.30;99.90;;;;;;5009005;28;20146;-77
2021/06/14 00:38:05;;;;;;;3.42;3.15;;;10.40;99.90;;;;;;4993157;28;20046;-76
2021/06/14 00:40:33;;;;;;;3.53;2.60;;;10.40;99.90;;;;;;4990532;28;20058;-76
2021/06/14 00:43:01;;;;;;;2.95;2.75;;;10.40;99.90;;;;;;4991949;28;20127;-76
2021/06/14 00:45:32;;;;;;;3.65;2.00;;;10.40;99.90;;;;;;4990578;28;20050;-81
2021/06/14 00:48:02;;;;;;;;;;;10.40;99.90;;;;;;4991059;28;20052;-81
2021/06/14 00:50:45;;;;;;;2.55;2.35;;;10.30;99.90;;;;;;4986653;28;20323;-81
2021/06/14 00:53:20;;;;;;;3.17;2.88;;;10.10;99.90;;;;;;4973143;28;20042;-81
2021/06/14 00:55:50;;;;;;;3.63;2.45;;;10.20;99.90;;;;;;5010226;28;20063;-81
2021/06/14 00:58:20;;;;;;;4.43;3.03;;;10.20;99.90;;;;;;4992584;28;20045;-81
2021/06/14 01:00:48;;;;;;;2.70;2.50;;;10.20;99.90;;;;;;5007578;28;20381;-81
2021/06/14 01:03:18;;;;;;;4.97;2.50;;;10.20;99.90;;;;;;4992933;28;20560;-77
2021/06/14 01:05:49;;;;;;;3.55;2.25;;;10.10;99.90;;;;;;5008703;28;20403;-76
2021/06/14 01:08:18;;;;;;;;;;;10.10;99.90;;;;;;4993981;28;20067;-76
2021/06/14 01:10:50;;;;;;;3.90;2.63;;;10.10;99.90;;;;;;5009680;28;20371;-76
2021/06/14 01:13:23;;;;;;;7.07;2.53;;;10.20;99.90;;;;;;5010573;28;20041;-76
2021/06/14 01:16:01;;;;;;;3.78;2.67;;;10.20;99.90;;;;;;4992070;28;20061;-76
2021/06/14 01:18:47;;;;;;;2.60;2.40;;;10.20;99.90;;;;;;4992478;28;20042;-76
2021/06/14 01:21:37;;;;;;;3.75;2.35;;;10.10;99.90;;;;;;4998679;28;20042;-76
2021/06/14 01:24:32;;;;;;;5.70;2.38;;;10.10;99.90;;;;;;5017982;28;20053;-77
2021/06/14 01:27:15;;;;;;;7.60;2.78;;;10.10;99.90;;;;;;4994639;28;20046;-76
2021/06/14 01:29:47;;;;;;;2.65;2.25;;;10.00;99.90;;;;;;5029675;28;20056;-77
2021/06/14 01:32:17;;;;;;;3.13;2.80;;;9.90;99.90;;;;;;5029130;28;20058;-77
2021/06/14 01:34:47;;;;;;;2.60;2.40;;;9.80;99.90;;;;;;5027835;28;20054;-76
2021/06/14 01:37:16;;;;;;;3.10;2.83;;;9.80;99.90;;;;;;5029765;28;20056;-76
2021/06/14 01:39:47;;;;;;;3.28;2.80;;;9.80;99.90;;;;;;5012017;28;20064;-76
2021/06/14 01:42:17;;;;;;;3.95;3.55;;;9.80;99.90;;;;;;5030130;28;20061;-76
2021/06/14 01:44:49;;;;;;;4.30;2.80;;;9.80;99.90;;;;;;5011089;28;20045;-77
2021/06/14 01:47:18;;;;;;;2.88;2.65;;;9.70;99.90;;;;;;5011666;28;20104;-76
2021/06/14 01:49:46;;;;;;;2.53;2.08;;;9.70;99.90;;;;;;5008760;28;20445;-80
2021/06/14 01:52:24;;;;;;;4.07;3.13;;;9.70;99.90;;;;;;5004995;28;20061;-81
2021/06/14 01:54:56;;;;;;;4.25;2.97;;;9.70;99.90;;;;;;5006437;28;20060;-81
2021/06/14 01:57:37;;;;;;;2.78;2.58;;;9.70;99.90;;;;;;5011575;28;20056;-81
2021/06/14 02:00:32;;;;;;;3.28;3.05;;;9.70;99.90;;;;;;5023024;28;20060;-80
2021/06/14 02:03:16;;;;;;;3.40;2.65;;;9.70;99.90;;;;;;4991959;28;20060;-80
2021/06/14 02:05:52;;;;;;;5.05;2.97;;;9.80;99.90;;;;;;4985109;28;20162;-80
2021/06/14 02:08:22;;;;;;;3.92;2.85;;;9.70;99.90;;;;;;5029190;28;20382;-80
2021/06/14 02:10:50;;;;;;;2.75;2.55;;;9.70;99.90;;;;;;4979256;28;20045;-80
2021/06/14 02:13:20;;;;;;;3.20;2.90;;;9.70;99.90;;;;;;5029268;28;20049;-81
2021/06/14 02:15:49;;;;;;;3.25;2.78;;;9.70;99.90;;;;;;5028212;28;20056;-81
2021/06/14 02:18:23;;;;;;;3.97;2.70;;;9.70;99.90;;;;;;4995527;28;20053;-81
2021/06/14 02:20:59;;;;;;;3.58;3.28;;;9.60;99.90;;;;;;5000462;28;20545;-81
2021/06/14 02:23:27;;;;;;;3.17;2.85;;;9.60;99.90;;;;;;4992106;28;20506;-80
2021/06/14 02:25:55;;;;;;;4.07;2.65;;;9.70;99.90;;;;;;5009110;28;20508;-81
2021/06/14 02:28:23;;;;;;;3.35;3.05;;;9.70;99.90;;;;;;5007701;28;20076;-80
2021/06/14 02:30:51;;;;;;;2.20;2.00;;;9.80;99.90;;;;;;4955804;28;20046;-81
2021/06/14 02:33:19;;;;;;;4.22;2.45;;;9.80;99.90;;;;;;4970849;28;20050;-82
2021/06/14 02:36:04;;;;;;;4.43;2.95;;;9.80;99.90;;;;;;4989321;28;20514;-81
2021/06/14 02:38:34;;;;;;;3.25;2.95;;;9.80;99.90;;;;;;4987257;28;20042;-82
2021/06/14 02:41:04;;;;;;;2.70;2.50;;;9.80;99.90;;;;;;4987098;28;20492;-82
2021/06/14 02:43:32;;;;;;;3.13;2.92;;;9.80;99.90;;;;;;4988583;28;20306;-81
2021/06/14 02:46:05;;;;;;;4.15;3.75;;;9.70;99.90;;;;;;4987474;28;20042;-81
2021/06/14 02:48:38;;;;;;;5.85;3.03;;;9.70;99.90;;;;;;4988502;28;20058;-82
2021/06/14 02:51:08;;;;;;;4.25;2.92;;;9.70;99.90;;;;;;4985786;28;20500;-81
2021/06/14 02:53:37;;;;;;;3.22;2.88;;;9.60;99.90;;;;;;4990409;28;20046;-82
2021/06/14 02:56:11;;;;;;;5.38;3.15;;;9.60;99.90;;;;;;4975637;28;20046;-82
2021/06/14 02:58:42;;;;;;;5.25;2.97;;;9.60;99.90;;;;;;4990978;28;20041;-82
2021/06/14 03:01:12;;;;;;;4.53;2.42;;;9.60;99.90;;;;;;5007367;28;20078;-82
2021/06/14 03:03:42;;;;;;;6.22;3.67;;;9.50;99.90;;;;;;4991364;28;20057;-82
2021/06/14 03:06:17;;;;;;;4.68;4.05;;;9.60;99.90;;;;;;4973010;28;20049;-80
2021/06/14 03:08:51;;;;;;;5.72;3.10;;;9.50;99.90;;;;;;4990528;28;20046;-81
2021/06/14 03:11:52;;;;;;;13.68;4.78;;;9.50;99.90;;;;;;4990950;28;20057;-82
2021/06/14 03:14:25;;;;;;;4.80;4.38;;;9.60;99.90;;;;;;4990147;28;20042;-82
2021/06/14 03:16:59;;;;;;;4.50;3.63;;;9.60;99.90;;;;;;4987241;28;20042;-83
2021/06/14 03:19:46;;;;;;;3.42;3.13;;;9.50;99.90;;;;;;4940942;28;20050;-81
2021/06/14 03:22:21;;;;;;;6.47;3.25;;;9.50;99.90;;;;;;4969153;28;20042;-83
2021/06/14 03:24:50;;;;;;;7.35;4.15;;;9.50;99.90;;;;;;4964506;28;20049;-82
2021/06/14 03:27:36;;;;;;;4.10;3.72;;;9.60;99.90;;;;;;5008834;28;20057;-82
2021/06/14 03:30:50;;;;;;;4.97;4.57;;;9.80;99.90;;;;;;4978229;28;20061;-82
2021/06/14 03:33:22;;;;;;;2.85;2.65;;;9.90;99.90;;;;;;4979534;28;20053;-83
2021/06/14 03:35:59;;;;;;;3.28;2.97;;;9.90;99.90;;;;;;4988865;28;20606;-81
2021/06/14 03:38:36;;;;;;;5.22;4.80;;;9.90;99.90;;;;;;5008300;28;20042;-83
2021/06/14 03:41:17;;;;;;;3.28;2.97;;;9.90;99.90;;;;;;5006550;28;20057;-83
2021/06/14 03:43:48;;;;;;;3.55;3.25;;;9.90;99.90;;;;;;5006700;28;20062;-82
2021/06/14 03:46:20;;;;;;;3.45;3.15;;;9.80;99.90;;;;;;4989600;28;20041;-82
2021/06/14 03:49:01;;;;;;;6.55;4.30;;;9.80;99.90;;;;;;5007781;28;20050;-83
2021/06/14 03:51:31;;;;;;;3.05;2.85;;;9.70;99.90;;;;;;4994484;28;20050;-82
2021/06/14 03:54:06;;;;;;;3.50;3.20;;;9.60;99.90;;;;;;4980817;28;20408;-83
2021/06/14 03:57:06;;;;;;;5.40;2.90;;;9.50;99.90;;;;;;4993154;28;20494;-83
2021/06/14 03:59:38;;;;;;;6.00;4.35;;;9.50;99.90;;;;;;4993743;28;20484;-83
2021/06/14 04:02:20;;;;;;;5.55;3.50;;;9.50;99.90;;;;;;4984604;28;20034;-83
2021/06/14 04:09:06;;;;;;;5.38;4.88;;;9.80;99.90;;;;;;5010087;28;20288;-83
2021/06/14 04:11:41;;;;;;;4.95;4.47;;;10.00;99.90;;;;;;4993074;28;20049;-84
2021/06/14 04:14:20;;;;;;;5.50;4.22;;;10.20;99.90;;;;;;5009160;28;20065;-83
2021/06/14 04:17:31;;;;;;;12.38;4.53;;;10.40;99.90;;;;;;4968368;28;20053;-83
2021/06/14 04:21:10;;;;;;;6.78;4.65;;;10.40;99.90;;;;;;5008341;28;20054;-83
2021/06/14 04:24:11;;;;;;;9.75;4.35;;;10.60;99.90;;;;;;5011041;28;20048;-83
2021/06/14 04:26:39;;;;;;;3.55;3.05;;;10.80;99.90;;;;;;5012306;28;20085;-82
2021/06/14 04:29:17;;;;;;;8.23;5.13;;;10.80;99.90;;;;;;5022038;28;20414;-83
2021/06/14 04:32:10;;;;;;;5.28;4.20;;;10.90;99.90;;;;;;5029887;28;20476;-83
2021/06/14 04:34:41;;;;;;;5.47;4.40;;;11.00;99.90;;;;;;5010700;28;20064;-83
2021/06/14 04:37:26;;;;;;;3.75;3.42;;;11.10;99.90;;;;;;4989730;28;20045;-81
2021/06/14 04:40:14;;;;;;;5.78;5.22;;;11.20;99.90;;;;;;5015579;28;20058;-83
2021/06/14 04:45:56;;;;;;;6.05;3.88;;;11.50;99.90;;;;;;5003319;28;20053;-83
2021/06/14 04:48:24;;;;;;;4.15;3.75;;;11.60;99.90;;;;;;4993722;28;20066;-82
2021/06/14 04:50:57;;;;;;;6.25;3.50;;;11.80;99.90;;;;;;5007407;28;20046;-82
2021/06/14 04:53:32;;;;;;;8.82;3.92;;;11.90;99.90;;;;;;5016674;28;20492;-82
2021/06/14 04:56:46;;;;;;;6.30;4.73;;;12.10;99.90;;;;;;5014433;28;20343;-83
2021/06/14 04:59:38;;;;;;;6.75;4.15;;;12.20;99.90;;;;;;5014026;28;20073;-82
2021/06/14 05:02:09;;;;;;;5.68;5.20;;;12.30;99.90;;;;;;5028290;28;20088;-81
2021/06/14 05:04:39;;;;;;;8.07;4.28;;;12.50;99.90;;;;;;5028343;28;20056;-82
2021/06/14 05:07:21;;;;;;;4.70;3.97;;;12.70;99.90;;;;;;5030057;28;20056;-83
2021/06/14 05:10:29;;;;;;;5.43;4.32;;;12.90;99.90;;;;;;5006421;28;20050;-84
2021/06/14 05:13:07;;;;;;;4.18;3.65;;;12.90;99.90;;;;;;4987300;28;20057;-82
2021/06/14 05:16:26;;;;;;;4.43;4.03;;;13.00;99.90;;;;;;4986214;28;20054;-83
2021/06/14 05:19:15;;;;;;;3.95;3.65;;;13.10;99.90;;;;;;4962937;28;20412;-82
2021/06/14 05:22:03;;;;;;;6.18;4.13;;;13.30;99.90;;;;;;4949088;28;20644;-83
2021/06/14 05:24:41;;;;;;;3.85;2.97;;;13.40;99.90;;;;;;4956142;28;20402;-84
2021/06/14 05:27:13;;;;;;;26.70;6.10;;;13.60;99.90;;;;;;4968396;28;20058;-82
2021/06/14 05:29:50;;;;;;;6.18;4.82;;;13.70;99.90;;;;;;4967306;28;20432;-82
2021/06/14 05:32:32;;;;;;;9.73;3.60;;;13.80;99.90;;;;;;4967532;28;20065;-82
2021/06/14 05:35:08;;;;;;;5.47;4.10;;;13.80;99.90;;;;;;4934494;28;20055;-82
2021/06/14 05:37:39;;;;;;;15.65;4.07;;;13.80;99.90;;;;;;4968000;28;20067;-83
2021/06/14 05:40:22;;;;;;;4.57;4.18;;;14.00;99.90;;;;;;4951362;28;20067;-82
2021/06/14 05:46:03;;;;;;;3.03;2.70;;;14.40;99.90;;;;;;4967275;28;20047;-83
2021/06/14 05:49:07;;;;;;;4.22;3.65;;;14.50;99.90;;;;;;4933532;28;20050;-83
2021/06/14 05:51:38;;;;;;;9.43;5.72;;;14.50;99.90;;;;;;4949696;28;20468;-78
2021/06/14 05:54:07;;;;;;;8.75;3.53;;;14.60;99.90;;;;;;4968020;28;20095;-78
2021/06/14 05:56:35;;;;;;;5.22;3.88;;;14.80;99.90;;;;;;4967981;28;20070;-77
2021/06/14 05:59:05;;;;;;;5.20;3.95;;;14.90;99.90;;;;;;5008097;28;20065;-78
2021/06/14 06:01:33;;;;;;;5.97;3.67;;;14.80;99.90;;;;;;5008692;28;20099;-78
2021/06/14 06:04:01;;;;;;;5.80;3.53;;;14.80;99.90;;;;;;5009022;28;20058;-78
2021/06/14 06:06:29;;;;;;;5.95;4.20;;;15.00;99.90;;;;;;5007177;28;20050;-86
2021/06/14 06:08:57;;;;;;;6.20;3.92;;;15.10;99.90;;;;;;5008387;28;20041;-87
2021/06/14 06:11:25;;;;;;;4.75;4.07;;;15.10;99.90;;;;;;5006783;28;20053;-88
2021/06/14 06:13:53;;;;;;;3.95;3.50;;;15.20;99.90;;;;;;4975747;28;20042;-85
2021/06/14 06:16:21;;;;;;;4.57;3.92;;;15.30;99.90;;;;;;4991718;28;20050;-79
2021/06/14 06:18:49;;;;;;;8.85;5.10;;;15.20;99.90;;;;;;5009674;28;20506;-78
2021/06/14 06:21:17;;;;;;;11.82;4.50;;;15.20;99.90;;;;;;5007243;28;20053;-78
2021/06/14 06:23:44;;;;;;;15.50;4.72;;;15.30;99.90;;;;;;5025319;28;20061;-79
2021/06/14 06:26:12;;;;;;;4.32;3.83;;;15.20;99.90;;;;;;5028091;28;20518;-79
2021/06/14 06:28:40;;;;;;;3.72;3.42;;;15.30;99.90;;;;;;5027707;28;20052;-78
2021/06/14 06:31:08;;;;;;;5.40;3.42;;;15.40;99.90;;;;;;5028712;28;20058;-79
2021/06/14 06:33:37;;;;;;;10.48;3.70;;;15.50;99.90;;;;;;5011040;28;20045;-78
2021/06/14 06:36:05;;;;;;;12.63;4.10;;;15.70;99.90;;;;;;5027017;28;20121;-77
2021/06/14 06:38:33;;;;;;;5.70;3.92;;;15.80;99.90;;;;;;5024674;28;20041;-78
2021/06/14 06:41:01;;;;;;;5.88;4.32;;;15.90;99.90;;;;;;5008535;28;20069;-78
2021/06/14 06:43:29;;;;;;;5.43;3.97;;;15.90;99.90;;;;;;5009785;28;20060;-78
2021/06/14 06:45:57;;;;;;;4.65;3.75;;;15.90;99.90;;;;;;5008652;28;20049;-81
2021/06/14 06:48:25;;;;;;;5.88;4.00;;;16.00;99.50;;;;;;4991179;28;20069;-79
2021/06/14 06:50:53;;;;;;;4.45;3.47;;;16.00;99.90;;;;;;5006820;28;20062;-78
2021/06/14 06:53:21;;;;;;;5.82;3.97;;;16.10;99.90;;;;;;5010091;28;20510;-78
2021/06/14 06:55:49;;;;;;;4.80;4.38;;;16.10;99.90;;;;;;5028999;28;20057;-77
2021/06/14 06:58:17;;;;;;;3.97;3.55;;;16.20;99.90;;;;;;5028638;28;20517;-76
2021/06/14 07:00:48;;;;;;;5.72;3.97;;;16.20;99.90;;;;;;5027662;28;20384;-77
2021/06/14 07:03:16;;;;;;;8.55;5.20;;;16.30;99.90;;;;;;5029225;28;20045;-77
2021/06/14 07:05:46;;;;;;;5.70;3.85;;;16.70;99.90;;;;;;5008690;28;20053;-78
2021/06/14 07:08:14;;;;;;;5.97;5.22;;;16.70;99.40;;;;;;5028449;28;20061;-79
2021/06/14 07:10:43;;;;;;;9.93;4.35;;;17.30;99.40;;;;;;5028175;28;20048;-78
2021/06/14 07:13:12;;;;;;;5.93;3.20;;;19.00;95.10;;;;;;5027951;28;20053;-78
2021/06/14 07:15:40;;;;;;;10.25;3.95;;;20.20;92.80;;;;;;5028670;28;20084;-79
2021/06/14 07:18:09;;;;;;;4.55;3.30;;;21.80;89.20;;;;;;5015456;28;20045;-78
2021/06/14 07:20:39;;;;;;;3.87;3.13;;;23.00;83.90;;;;;;5006267;28;20045;-79
2021/06/14 07:23:07;;;;;;;3.67;3.15;;;23.90;80.80;;;;;;4991474;28;20301;-78
2021/06/14 07:25:34;;;;;;;8.82;3.45;;;25.00;77.30;;;;;;5029880;28;20065;-78
2021/06/14 07:28:02;;;;;;;9.48;2.97;;;24.90;74.70;;;;;;5015311;28;20060;-79
2021/06/14 07:30:32;;;;;;;5.50;3.28;;;23.80;75.90;;;;;;5031235;28;20045;-78
2021/06/14 07:33:01;;;;;;;6.57;3.58;;;22.90;81.60;;;;;;5014379;28;20049;-79
2021/06/14 07:35:35;;;;;;;3.33;3.08;;;22.60;82.10;;;;;;5030787;28;20212;-78
2021/06/14 07:38:04;;;;;;;4.82;3.30;;;22.50;80.70;;;;;;5031851;28;20053;-78
2021/06/14 07:40:33;;;;;;;3.53;3.13;;;23.90;74.30;;;;;;5030904;28;20050;-77
2021/06/14 07:43:01;;;;;;;5.38;3.03;;;24.90;72.60;;;;;;5030969;28;20057;-77
2021/06/14 07:45:29;;;;;;;4.75;3.35;;;24.60;72.40;;;;;;5013488;28;20056;-78
2021/06/14 07:47:56;;;;;;;5.70;3.50;;;23.50;74.30;;;;;;5031254;28;20341;-78
2021/06/14 07:50:25;;;;;;;6.93;3.10;;;22.10;76.90;;;;;;5023480;28;20034;-77
2021/06/14 07:52:53;;;;;;;4.38;2.90;;;21.10;83.90;;;;;;5012032;28;20518;-78
2021/06/14 07:55:21;;;;;;;3.55;2.92;;;20.70;86.80;;;;;;5028584;28;20054;-77
2021/06/14 07:57:49;;;;;;;3.67;3.00;;;20.50;86.40;;;;;;5031566;28;20052;-77
2021/06/14 08:00:17;;;;;;;4.53;3.17;;;20.60;85.40;;;;;;5031331;28;20060;-77
2021/06/14 08:02:47;;;;;;;4.97;3.42;;;20.40;84.00;;;;;;5012724;28;20050;-77
2021/06/14 08:05:15;;;;;;;3.67;2.85;;;20.10;86.50;;;;;;5029237;28;20049;-77
2021/06/14 08:07:44;;;;;;;4.13;2.75;;;20.00;87.50;;;;;;5031221;28;20057;-77
2021/06/14 08:10:16;;;;;;;5.03;4.53;;;19.60;89.30;;;;;;5029797;28;20396;-77
2021/06/14 08:12:47;;;;;;;7.32;3.83;;;19.40;88.80;;;;;;5031624;28;20042;-77
2021/06/14 08:15:19;;;;;;;;;;;19.30;91.50;;;;;;5032244;28;20506;-77
2021/06/14 08:17:48;;;;;;;38.75;4.40;;;19.20;91.40;;;;;;5031423;28;19920;-78
2021/06/14 08:25:34;;;;;;;8.05;3.70;;;19.10;88.80;;;;;;5030993;28;20041;-77
2021/06/14 08:28:02;;;;;;;3.05;2.67;;;19.00;91.00;;;;;;5032229;28;20045;-77
2021/06/14 08:30:31;;;;;;;3.60;2.85;;;18.90;91.20;;;;;;5029297;28;20052;-77
2021/06/14 08:33:00;;;;;;;4.68;2.30;;;19.00;91.90;;;;;;5030777;28;20482;-77
2021/06/14 08:35:28;;;;;;;4.15;3.60;;;19.10;91.20;;;;;;5028753;28;20141;-77
2021/06/14 08:37:57;;;;;;;5.03;3.05;;;19.20;90.70;;;;;;5030997;28;20487;-77
2021/06/14 08:40:31;;;;;;;5.32;2.90;;;19.10;90.60;;;;;;5011478;28;20543;-77
2021/06/14 08:43:04;;;;;;;4.07;3.65;;;19.10;90.70;;;;;;5011444;28;20057;-77
2021/06/14 08:45:35;;;;;;;6.82;3.30;;;19.10;91.50;;;;;;5009910;28;20042;-77
2021/06/14 08:48:03;;;;;;;;;;;19.20;91.20;;;;;;5010753;28;20232;-78
2021/06/14 08:50:31;;;;;;;13.23;3.95;;;19.20;90.00;;;;;;5008253;28;19925;-77
2021/06/14 08:52:59;;;;;;;2.95;2.72;;;19.10;91.40;;;;;;5008976;28;20052;-77
2021/06/14 08:55:28;;;;;;;5.32;3.28;;;19.00;89.60;;;;;;5029382;28;20058;-77
2021/06/14 08:57:56;;;;;;;2.30;2.10;;;19.00;90.10;;;;;;5030640;28;20042;-77
2021/06/14 09:00:26;;;;;;;10.35;3.95;;;19.00;93.50;;;;;;5011870;28;20049;-77
2021/06/14 09:02:55;;;;;;;4.47;3.50;;;19.00;90.80;;;;;;5029742;28;20057;-78
2021/06/14 09:05:24;;;;;;;6.32;2.55;;;19.00;90.20;;;;;;5028288;28;20045;-77
2021/06/14 09:07:55;;;;;;;6.45;3.83;;;19.00;89.60;;;;;;5031035;28;20057;-77
2021/06/14 09:10:30;;;;;;;5.55;3.42;;;19.00;89.40;;;;;;5012063;28;20052;-77
2021/06/14 09:13:21;;;;;;;3.83;3.35;;;19.00;92.00;;;;;;5027571;28;20041;-85
2021/06/14 09:16:10;;;;;;;3.25;2.95;;;19.20;90.70;;;;;;4995398;28;20050;-84
2021/06/14 09:18:41;;;;;;;6.82;3.08;;;19.40;89.70;;;;;;4979110;28;20049;-85
2021/06/14 09:21:30;;;;;;;5.03;2.38;;;19.40;90.90;;;;;;4998636;28;20050;-82
2021/06/14 09:24:13;;;;;;;3.53;2.60;;;19.50;91.20;;;;;;5015506;28;20054;-85
2021/06/14 09:26:51;;;;;;;3.25;2.92;;;19.50;89.40;;;;;;4995472;28;20053;-83
2021/06/14 09:29:28;;;;;;;5.57;2.67;;;19.50;90.30;;;;;;4995036;28;20046;-84
2021/06/14 09:32:01;;;;;;;4.97;2.60;;;19.40;90.10;;;;;;5027167;28;20060;-84
2021/06/14 09:34:42;;;;;;;7.05;2.83;;;19.40;92.20;;;;;;5027835;28;20049;-87
2021/06/14 09:37:21;;;;;;;4.45;3.63;;;19.60;90.30;;;;;;5012806;28;20053;-84
2021/06/14 09:39:49;;;;;;;9.90;3.13;;;19.50;91.40;;;;;;5011086;28;20439;-85
2021/06/14 09:42:27;;;;;;;4.93;2.58;;;19.50;88.00;;;;;;5028567;28;20053;-83
2021/06/14 09:45:04;;;;;;;2.63;2.42;;;19.50;87.30;;;;;;5011212;28;20288;-83
2021/06/14 09:47:33;;;;;;;3.45;2.78;;;19.50;90.30;;;;;;5028449;28;20053;-83
2021/06/14 09:50:08;;;;;;;6.90;3.00;;;19.60;89.70;;;;;;5004936;28;20507;-85
2021/06/14 09:52:45;;;;;;;9.10;3.45;;;19.50;89.00;;;;;;4976959;28;20042;-82
2021/06/14 09:55:17;;;;;;;3.25;2.17;;;19.60;89.10;;;;;;5007693;28;20045;-82
2021/06/14 09:57:45;;;;;;;3.75;2.30;;;19.70;90.70;;;;;;5028679;28;20038;-82
2021/06/14 10:00:14;;;;;;;3.53;1.98;;;19.80;86.70;;;;;;5010849;28;20839;-83
2021/06/14 10:02:57;;;;;;;6.57;2.70;;;19.80;84.90;;;;;;5027717;28;20045;-82
2021/06/14 10:05:25;;;;;;;6.20;3.15;;;19.70;89.70;;;;;;5024438;28;20060;-83
2021/06/14 10:07:59;;;;;;;2.35;2.15;;;19.70;86.60;;;;;;5029180;28;20072;-84
2021/06/14 10:10:29;;;;;;;3.17;1.67;;;19.80;86.60;;;;;;5027738;28;20045;-82
2021/06/14 10:12:58;;;;;;;4.70;2.30;;;19.90;84.90;;;;;;5010906;28;20053;-83
2021/06/14 10:16:25;;;;;;;5.70;3.25;;;20.00;82.90;;;;;;4999394;28;20060;-84
2021/06/14 10:18:59;;;;;;;11.55;2.38;;;20.00;85.50;;;;;;5000541;28;20042;-84
2021/06/14 10:21:37;;;;;;;3.08;2.72;;;20.20;85.60;;;;;;5023434;28;20053;-82
2021/06/14 10:24:10;;;;;;;2.92;2.40;;;20.20;84.00;;;;;;4976843;28;20061;-83
2021/06/14 10:26:44;;;;;;;3.17;2.28;;;20.20;85.40;;;;;;5009294;28;20416;-83
2021/06/14 10:29:16;;;;;;;24.92;5.60;;;20.30;83.40;;;;;;4991688;28;20042;-83
2021/06/14 10:31:47;;;;;;;4.97;2.78;;;20.20;86.00;;;;;;4990682;28;20412;-84
2021/06/14 10:34:16;;;;;;;6.72;3.17;;;20.20;84.60;;;;;;4990697;28;20500;-83
2021/06/14 10:36:53;;;;;;;4.68;2.67;;;20.30;86.40;;;;;;4993429;28;20487;-82
2021/06/14 10:39:24;;;;;;;2.60;2.40;;;20.30;87.90;;;;;;4975591;28;20050;-82
2021/06/14 10:41:53;;;;;;;5.93;2.78;;;20.40;87.20;;;;;;5007920;28;20069;-82
2021/06/14 10:44:21;;;;;;;2.20;2.10;;;20.50;89.70;;;;;;5006707;28;20061;-82
2021/06/14 10:46:50;;;;;;;2.15;2.03;;;20.60;87.20;;;;;;5009142;28;20411;-83
2021/06/14 10:49:19;;;;;;;3.88;2.03;;;20.70;81.70;;;;;;4990471;28;20050;-82
2021/06/14 10:52:01;;;;;;;4.60;2.22;;;20.60;81.10;;;;;;5006477;28;20057;-83
2021/06/14 10:54:43;;;;;;;2.72;2.15;;;20.60;84.50;;;;;;5008233;28;20522;-84
2021/06/14 10:57:13;;;;;;;2.65;1.98;;;20.60;82.70;;;;;;4990614;28;20471;-83
2021/06/14 10:59:46;;;;;;;8.48;3.67;;;20.70;81.90;;;;;;5011035;28;20049;-83
2021/06/14 11:02:19;;;;;;;3.20;2.22;;;20.80;85.40;;;;;;5011447;28;20507;-85
2021/06/14 11:04:47;;;;;;;6.30;2.63;;;20.90;79.70;;;;;;5010324;28;20486;-84
2021/06/14 11:07:31;;;;;;;4.32;2.17;;;20.90;80.80;;;;;;5010808;28;20061;-83
2021/06/14 11:09:59;;;;;;;7.20;2.25;;;20.90;81.90;;;;;;4993963;28;20048;-83
2021/06/14 11:12:28;;;;;;;7.30;2.50;;;21.00;82.30;;;;;;4995142;28;20054;-84
2021/06/14 11:15:08;;;;;;;3.08;2.63;;;20.90;80.80;;;;;;4995415;28;20057;-83
2021/06/14 11:17:41;;;;;;;4.55;2.30;;;20.90;84.20;;;;;;5001446;28;20043;-84
2021/06/14 11:20:11;;;;;;;4.93;2.15;;;20.90;88.40;;;;;;4941530;28;20508;-84
2021/06/14 11:22:42;;;;;;;2.70;1.70;;;21.00;80.30;;;;;;4998286;28;20046;-84
2021/06/14 11:25:30;;;;;;;2.33;2.13;;;21.00;79.40;;;;;;4993971;28;20404;-84
2021/06/14 11:28:27;;;;;;;4.03;2.25;;;21.10;81.20;;;;;;5014640;28;20068;-85
2021/06/14 11:30:57;;;;;;;5.97;2.45;;;21.10;76.90;;;;;;5023852;28;20037;-84
2021/06/14 11:33:28;;;;;;;3.43;2.00;;;21.10;77.90;;;;;;5013918;28;20056;-83
2021/06/14 11:37:06;;;;;;;4.90;2.10;;;21.10;77.20;;;;;;4995730;28;20407;-86
2021/06/14 11:44:17;;;;;;;3.72;2.47;;;21.00;86.70;;;;;;5032135;28;20061;-86
2021/06/14 11:47:29;;;;;;;2.20;1.90;;;21.20;78.50;;;;;;4961750;28;20090;-86
2021/06/14 11:54:20;;;;;;;3.63;2.33;;;21.20;69.70;;;;;;5025914;28;20056;-85
2021/06/14 11:57:36;;;;;;;2.97;1.77;;;21.20;82.50;;;;;;5002780;28;20045;-86
2021/06/14 12:01:43;;;;;;;1.52;1.33;;;21.30;67.80;;;;;;5027818;28;20545;-87
2021/06/14 12:05:35;;;;;;;1.40;1.30;;;21.40;72.60;;;;;;5017329;28;20052;-86
2021/06/14 12:22:31;;;;;;;2.22;1.80;;;21.60;71.80;;;;;;4895710;29;20386;-87
2021/06/14 12:25:18;;;;;;;1.33;1.23;;;21.60;70.70;;;;;;4896991;29;20055;-86
2021/06/14 12:28:45;;;;;;;1.42;1.33;;;21.60;72.80;;;;;;4893293;29;20076;-85
2021/06/14 12:32:09;;;;;;;4.00;1.67;;;21.70;73.10;;;;;;4888630;29;20083;-85
2021/06/14 12:34:44;;;;;;;2.17;1.97;;;21.80;66.40;;;;;;4816477;29;20049;-86
2021/06/14 12:37:18;;;;;;;4.88;1.02;;;21.80;58.80;;;;;;4851631;29;20120;-86
2021/06/14 12:40:05;;;;;;;4.53;1.95;;;21.80;58.50;;;;;;4837233;29;20066;-86
2021/06/14 12:52:10;;;;;;;2.88;2.35;;;22.00;62.40;;;;;;4908179;29;20067;-85
2021/06/14 12:55:02;;;;;;;1.20;1.00;;;22.00;64.90;;;;;;4899298;29;20409;-86
2021/06/14 12:58:08;;;;;;;1.77;1.67;;;22.00;70.70;;;;;;4927873;28;20051;-87
2021/06/14 13:01:20;;;;;;;2.47;1.15;;;22.10;66.90;;;;;;4992765;28;20048;-85
2021/06/14 13:04:31;;;;;;;;;;;;;;;;;;;;;
2021/06/14 13:12:36;;;;;;;1.45;1.13;;;22.30;63.20;;;;;;4899893;29;20058;-86
2021/06/14 13:15:20;;;;;;;1.33;1.23;;;22.20;63.70;;;;;;4920203;29;20066;-88
2021/06/14 13:18:29;;;;;;;1.75;1.45;;;22.30;60.50;;;;;;4935549;29;20163;-86
2021/06/14 13:21:26;;;;;;;2.28;1.00;;;22.40;58.60;;;;;;4914250;28;20045;-86
2021/06/14 13:25:03;;;;;;;1.65;1.55;;;22.40;66.10;;;;;;5019491;28;20049;-87
2021/06/14 13:27:39;;;;;;;1.63;1.30;;;22.50;63.90;;;;;;5007462;28;20508;-87
2021/06/14 13:30:48;;;;;;;1.75;1.65;;;22.50;63.70;;;;;;5006341;28;20061;-86
2021/06/14 13:41:09;;;;;;;4.18;1.45;;;22.60;62.30;;;;;;4915639;29;20067;-87
2021/06/14 13:43:40;;;;;;;4.20;1.98;;;22.70;63.30;;;;;;4929494;28;20498;-84
2021/06/14 13:46:08;;;;;;;1.67;1.40;;;22.80;66.80;;;;;;4929555;29;20059;-86
2021/06/14 13:48:47;;;;;;;2.10;1.55;;;22.70;62.90;;;;;;4929776;28;20055;-87
2021/06/14 13:51:20;;;;;;;3.17;1.42;;;22.80;64.10;;;;;;4915724;29;20064;-86
2021/06/14 13:54:00;;;;;;;2.75;2.17;;;22.80;64.80;;;;;;4913390;28;20044;-83
2021/06/14 13:57:39;;;;;;;1.60;1.50;;;22.80;61.20;;;;;;4900186;29;20062;-85
2021/06/14 14:01:13;;;;;;;1.90;1.42;;;22.90;63.50;;;;;;4865798;29;20502;-85
2021/06/14 14:04:30;;;;;;;2.60;1.80;;;22.90;59.40;;;;;;4853376;29;20054;-86
2021/06/14 14:12:03;;;;;;;2.28;1.35;;;22.90;63.80;;;;;;4846484;29;20092;-85
2021/06/14 14:15:33;;;;;;;1.40;1.30;;;23.10;66.50;;;;;;4910357;29;20451;-83
2021/06/14 14:19:33;;;;;;;1.80;1.70;;;23.20;66.20;;;;;;4969370;28;20167;-85
2021/06/14 14:22:34;;;;;;;2.00;1.52;;;23.20;66.20;;;;;;4978299;28;20047;-85
2021/06/14 14:25:39;;;;;;;3.10;1.73;;;23.20;65.80;;;;;;4998186;28;20056;-85
2021/06/14 14:28:17;;;;;;;3.65;1.63;;;23.20;61.30;;;;;;5028279;28;20084;-91
2021/06/14 14:30:58;;;;;;;1.63;1.52;;;23.10;61.30;;;;;;5017490;28;20497;-85
2021/06/14 14:33:41;;;;;;;2.45;1.67;;;23.00;65.70;;;;;;5014873;28;20049;-85
2021/06/14 14:40:45;;;;;;;2.08;1.33;;;23.30;65.30;;;;;;4905847;28;20043;-86
2021/06/14 14:43:30;;;;;;;4.50;2.85;;;23.40;60.50;;;;;;4967836;28;20407;-84
2021/06/14 14:46:44;;;;;;;10.95;2.97;;;23.30;64.30;;;;;;4951458;28;20047;-84
2021/06/14 14:49:14;;;;;;;5.07;1.77;;;23.30;64.40;;;;;;4969257;28;20443;-84
2021/06/14 14:52:05;;;;;;;3.20;2.17;;;23.30;63.10;;;;;;4968756;28;20551;-82
2021/06/14 14:54:36;;;;;;;6.28;1.30;;;23.20;64.80;;;;;;4963482;28;20046;-82
2021/06/14 14:57:07;;;;;;;;;;;23.30;63.90;;;;;;4972051;28;20145;-82